createdAt,value
2019-01-19T20:54:58.620Z,37.05
2019-01-19T20:57:26.910Z,38.78
2019-01-19T20:59:55.156Z,43.70
2019-01-19T21:02:23.495Z,38.73
2019-01-19T21:04:51.754Z,38.20
2019-01-19T21:07:20.357Z,40.10
2019-01-19T21:09:48.740Z,40.90
2019-01-19T21:12:17.525Z,42.23
2019-01-19T21:14:45.767Z,43.30
2019-01-19T21:17:14.064Z,52.08
2019-01-19T21:19:42.311Z,42.13
2019-01-19T21:22:10.564Z,44.33
2019-01-19T21:24:38.925Z,42.00
2019-01-19T21:27:07.326Z,46.42
2019-01-19T21:29:35.622Z,47.58
2019-01-19T21:32:04.196Z,44.25
2019-01-19T21:34:32.528Z,50.23
2019-01-19T21:37:00.773Z,43.83
2019-01-19T21:39:29.077Z,46.15
2019-01-19T21:41:57.327Z,49.53
2019-01-19T21:44:25.629Z,49.05
2019-01-19T21:46:54.210Z,51.75
2019-01-19T21:49:22.901Z,54.23
2019-01-19T21:51:51.199Z,48.20
2019-01-19T21:54:19.499Z,49.13
2019-01-19T21:56:47.792Z,54.18
2019-01-19T21:59:16.049Z,52.83
2019-01-19T22:01:44.595Z,49.63
2019-01-19T22:04:13.099Z,56.28
2019-01-19T22:06:41.460Z,57.33
2019-01-19T22:09:09.755Z,65.55
2019-01-19T22:11:38.292Z,57.53
2019-01-19T22:14:06.548Z,65.32
2019-01-19T22:16:34.857Z,64.60
2019-01-19T22:19:04.188Z,64.45
2019-01-19T22:21:32.736Z,65.15
2019-01-19T22:24:01.023Z,73.00
2019-01-19T22:26:29.539Z,65.05
2019-01-19T22:28:57.947Z,68.37
2019-01-19T22:31:26.187Z,64.32
2019-01-19T22:33:54.479Z,68.05
2019-01-19T22:36:22.729Z,59.53
2019-01-19T22:38:51.022Z,59.55
2019-01-19T22:41:19.266Z,55.85
2019-01-19T22:43:47.531Z,56.20
2019-01-19T22:46:15.991Z,62.15
2019-01-19T22:48:44.246Z,63.65
2019-01-19T22:51:12.549Z,61.88
2019-01-19T22:53:40.837Z,59.40
2019-01-19T22:56:09.095Z,62.17
2019-01-19T22:58:37.763Z,69.53
2019-01-19T23:01:24.407Z,64.45
2019-01-19T23:03:52.716Z,61.53
2019-01-19T23:06:20.976Z,63.98
2019-01-19T23:08:49.266Z,65.00
2019-01-19T23:11:17.515Z,66.02
2019-01-19T23:13:45.803Z,62.33
2019-01-19T23:16:14.092Z,64.90
2019-01-19T23:18:42.355Z,66.45
2019-01-19T23:21:10.624Z,69.23
2019-01-19T23:23:38.928Z,63.78
2019-01-19T23:26:07.249Z,65.62
2019-01-19T23:28:35.545Z,64.22
2019-01-19T23:31:04.161Z,68.33
2019-01-19T23:33:32.410Z,65.80
2019-01-19T23:36:00.700Z,64.42
2019-01-19T23:38:28.958Z,65.85
2019-01-19T23:40:57.248Z,59.27
2019-01-19T23:43:25.495Z,62.03
2019-01-19T23:45:53.749Z,64.37
2019-01-19T23:48:22.063Z,68.15
2019-01-19T23:50:50.342Z,66.22
2019-01-19T23:53:18.696Z,62.40
2019-01-19T23:55:46.984Z,63.35
2019-01-19T23:58:15.247Z,68.52
